Terminal Aerodrome Forecast
Issued by NWS

Home | Current Version | Previous Version | Text Only | Print | Product List | Glossary On
Versions: 1 2 3 4 5 6 7 8 9 10 11 12 13 14 15 16 17 18 19 20 21
000
FTUS41 KOKX 021700 RRA
TAFSWF
TAF
KSWF 021742Z 0218/0324 31023G33KT P6SM BKN050
     FM022200 31016G24KT P6SM BKN045
     FM030000 31009KT P6SM FEW040
     FM030300 30005KT P6SM SKC
     FM030900 VRB03KT P6SM SCT250
     FM031500 VRB04KT P6SM FEW015 SCT150
     FM031800 16006KT P6SM SCT020 BKN100
     FM032200 16008KT 6SM -SN BKN020 OVC060
      AMD NOT SKED=

USA.gov is the U.S. government's official web portal to all federal, state and local government web resources and services.